OUD weather

Angads Airport
Oujda, Oujda Province, Morocco

Public forecast

Using degrees Celsius for public forecast. Weather courtesy of forecast.io.

METAR (pilot weather report)

Retrieved 2019/09/23 03:30 UTC (14 minutes ago):

GMFO 230330Z VRB02KT CAVOK 16/14 Q1019 NOSIG

TAF (pilot weather forecast)

Forecast is more than 12 hours old.

Retrieved 2019/09/22 00:18 UTC (1 day ago):

TAF GMFO 222300Z 2300/2406 19004KT CAVOK BECMG 2314/2318 36014KT BECMG 2401/2405 VRB02KT